sensor_id;sensor_type;location;lat;lon;timestamp;pressure;altitude;pressure_sealevel;temperature;humidity
70902;BME280;58548;47.210;8.618;2023-10-13T00:00:43;94481.66;;;21.18;35.08
70902;BME280;58548;47.210;8.618;2023-10-13T00:03:15;94475.16;;;21.09;35.04
70902;BME280;58548;47.210;8.618;2023-10-13T00:05:43;94387.59;;;20.53;35.41
70902;BME280;58548;47.210;8.618;2023-10-13T00:08:12;94307.66;;;20.04;34.76
70902;BME280;58548;47.210;8.618;2023-10-13T00:10:42;94466.34;;;21.03;34.44
70902;BME280;58548;47.210;8.618;2023-10-13T00:13:10;94368.34;;;20.40;34.85
70902;BME280;58548;47.210;8.618;2023-10-13T00:15:46;94458.03;;;21.00;34.64
70902;BME280;58548;47.210;8.618;2023-10-13T00:18:29;94372.81;;;20.40;34.70
70902;BME280;58548;47.210;8.618;2023-10-13T00:21:00;94412.50;;;20.69;34.95
70902;BME280;58548;47.210;8.618;2023-10-13T00:23:42;94448.97;;;20.96;34.98
70902;BME280;58548;47.210;8.618;2023-10-13T00:26:29;94432.91;;;20.85;34.87
70902;BME280;58548;47.210;8.618;2023-10-13T00:28:57;94371.22;;;20.39;35.06
70902;BME280;58548;47.210;8.618;2023-10-13T00:31:40;94437.03;;;20.76;35.20
70902;BME280;58548;47.210;8.618;2023-10-13T00:34:14;94345.16;;;20.13;34.85
70902;BME280;58548;47.210;8.618;2023-10-13T00:36:58;94343.47;;;20.07;35.04
70902;BME280;58548;47.210;8.618;2023-10-13T00:39:38;94459.28;;;20.75;35.26
70902;BME280;58548;47.210;8.618;2023-10-13T00:42:11;94352.28;;;20.13;35.15
70902;BME280;58548;47.210;8.618;2023-10-13T00:44:45;94449.34;;;20.65;34.84
70902;BME280;58548;47.210;8.618;2023-10-13T00:47:20;94368.19;;;20.13;35.36
70902;BME280;58548;47.210;8.618;2023-10-13T00:50:03;94438.94;;;20.63;35.33
70902;BME280;58548;47.210;8.618;2023-10-13T00:52:33;94424.34;;;20.44;35.09
70902;BME280;58548;47.210;8.618;2023-10-13T00:55:10;94433.44;;;20.48;35.04
70902;BME280;58548;47.210;8.618;2023-10-13T00:57:37;94452.13;;;20.58;34.77
70902;BME280;58548;47.210;8.618;2023-10-13T01:00:03;94452.13;;;20.58;35.13
70902;BME280;58548;47.210;8.618;2023-10-13T01:02:45;94412.38;;;20.24;35.33
70902;BME280;58548;47.210;8.618;2023-10-13T01:05:21;94443.69;;;20.44;35.60
70902;BME280;58548;47.210;8.618;2023-10-13T01:07:52;94419.59;;;20.29;35.49
70902;BME280;58548;47.210;8.618;2023-10-13T01:10:21;94445.47;;;20.39;35.76
70902;BME280;58548;47.210;8.618;2023-10-13T01:12:56;94336.69;;;19.65;35.48
70902;BME280;58548;47.210;8.618;2023-10-13T01:15:22;94448.88;;;20.34;35.41
70902;BME280;58548;47.210;8.618;2023-10-13T01:17:48;94433.75;;;20.34;35.26
70902;BME280;58548;47.210;8.618;2023-10-13T01:20:17;94327.84;;;19.59;35.78
70902;BME280;58548;47.210;8.618;2023-10-13T01:22:54;94415.44;;;20.16;35.50
70902;BME280;58548;47.210;8.618;2023-10-13T01:25:25;94434.25;;;20.31;35.42
70902;BME280;58548;47.210;8.618;2023-10-13T01:27:54;94425.72;;;20.29;35.09
70902;BME280;58548;47.210;8.618;2023-10-13T01:30:23;94416.00;;;20.18;35.29
70902;BME280;58548;47.210;8.618;2023-10-13T01:32:51;94420.59;;;20.23;34.89
70902;BME280;58548;47.210;8.618;2023-10-13T01:35:18;94400.81;;;20.13;34.87
70902;BME280;58548;47.210;8.618;2023-10-13T01:38:02;94326.25;;;19.58;35.09
70902;BME280;58548;47.210;8.618;2023-10-13T01:40:28;94415.59;;;20.26;34.94
70902;BME280;58548;47.210;8.618;2023-10-13T01:42:59;94266.69;;;19.27;35.23
70902;BME280;58548;47.210;8.618;2023-10-13T01:45:25;94390.59;;;20.05;34.66
70902;BME280;58548;47.210;8.618;2023-10-13T01:47:55;94340.53;;;19.74;34.45
70902;BME280;58548;47.210;8.618;2023-10-13T01:50:24;94402.44;;;20.14;34.79
70902;BME280;58548;47.210;8.618;2023-10-13T01:52:56;94342.97;;;19.76;34.38
70902;BME280;58548;47.210;8.618;2023-10-13T01:55:45;94328.19;;;19.63;35.11
70902;BME280;58548;47.210;8.618;2023-10-13T01:58:16;94347.44;;;19.76;34.44
70902;BME280;58548;47.210;8.618;2023-10-13T02:00:48;94420.72;;;20.16;34.76
70902;BME280;58548;47.210;8.618;2023-10-13T02:03:17;94402.13;;;20.11;35.03
70902;BME280;58548;47.210;8.618;2023-10-13T02:05:49;94329.78;;;19.64;34.72
70902;BME280;58548;47.210;8.618;2023-10-13T02:08:20;94421.38;;;20.23;34.76
70902;BME280;58548;47.210;8.618;2023-10-13T02:10:54;94421.63;;;20.22;34.65
70902;BME280;58548;47.210;8.618;2023-10-13T02:13:23;94316.47;;;19.59;34.62
70902;BME280;58548;47.210;8.618;2023-10-13T02:15:53;94345.06;;;19.74;34.67
70902;BME280;58548;47.210;8.618;2023-10-13T02:18:23;94397.88;;;20.10;34.50
70902;BME280;58548;47.210;8.618;2023-10-13T02:20:56;94341.09;;;19.77;34.53
70902;BME280;58548;47.210;8.618;2023-10-13T02:23:23;94323.47;;;19.65;34.69
70902;BME280;58548;47.210;8.618;2023-10-13T02:25:56;94420.09;;;20.26;34.74
70902;BME280;58548;47.210;8.618;2023-10-13T02:28:53;94324.03;;;19.67;34.07
70902;BME280;58548;47.210;8.618;2023-10-13T02:31:28;94388.34;;;20.14;34.84
70902;BME280;58548;47.210;8.618;2023-10-13T02:33:53;94357.28;;;19.92;34.66
70902;BME280;58548;47.210;8.618;2023-10-13T02:36:23;94331.72;;;19.69;34.55
70902;BME280;58548;47.210;8.618;2023-10-13T02:39:05;94367.47;;;20.00;34.40
70902;BME280;58548;47.210;8.618;2023-10-13T02:41:35;94307.63;;;19.53;34.26
70902;BME280;58548;47.210;8.618;2023-10-13T02:44:05;94408.03;;;20.18;33.94
70902;BME280;58548;47.210;8.618;2023-10-13T02:46:34;94309.88;;;19.62;34.32
70902;BME280;58548;47.210;8.618;2023-10-13T02:49:07;94317.91;;;19.67;34.01
70902;BME280;58548;47.210;8.618;2023-10-13T02:51:37;94312.59;;;19.67;34.23
70902;BME280;58548;47.210;8.618;2023-10-13T02:54:04;94313.91;;;19.64;34.59
70902;BME280;58548;47.210;8.618;2023-10-13T02:56:38;94409.16;;;20.22;35.37
70902;BME280;58548;47.210;8.618;2023-10-13T02:59:26;94393.03;;;20.07;35.40
70902;BME280;58548;47.210;8.618;2023-10-13T03:02:09;94402.19;;;20.16;35.22
70902;BME280;58548;47.210;8.618;2023-10-13T03:04:55;94407.91;;;20.08;35.46
70902;BME280;58548;47.210;8.618;2023-10-13T03:07:37;94305.47;;;19.50;35.76
70902;BME280;58548;47.210;8.618;2023-10-13T03:10:04;94402.59;;;20.08;35.90
70902;BME280;58548;47.210;8.618;2023-10-13T03:12:37;94407.34;;;20.06;35.73
70902;BME280;58548;47.210;8.618;2023-10-13T03:15:07;94295.41;;;19.35;35.79
70902;BME280;58548;47.210;8.618;2023-10-13T03:17:45;94400.13;;;20.01;35.33
70902;BME280;58548;47.210;8.618;2023-10-13T03:20:13;94337.97;;;19.63;35.65
70902;BME280;58548;47.210;8.618;2023-10-13T03:22:44;94391.81;;;19.97;35.11
70902;BME280;58548;47.210;8.618;2023-10-13T03:25:15;94297.75;;;19.32;35.36
70902;BME280;58548;47.210;8.618;2023-10-13T03:28:08;94372.69;;;19.78;35.55
70902;BME280;58548;47.210;8.618;2023-10-13T03:30:37;94385.31;;;19.88;35.19
70902;BME280;58548;47.210;8.618;2023-10-13T03:33:11;94349.84;;;19.60;35.13
70902;BME280;58548;47.210;8.618;2023-10-13T03:35:54;94365.91;;;19.70;34.99
70902;BME280;58548;47.210;8.618;2023-10-13T03:38:25;94387.28;;;19.81;34.81
70902;BME280;58548;47.210;8.618;2023-10-13T03:40:55;94379.25;;;19.76;35.28
70902;BME280;58548;47.210;8.618;2023-10-13T03:43:44;94286.53;;;19.12;35.02
70902;BME280;58548;47.210;8.618;2023-10-13T03:46:17;94380.53;;;19.73;35.20
70902;BME280;58548;47.210;8.618;2023-10-13T03:48:49;94381.81;;;19.70;35.42
70902;BME280;58548;47.210;8.618;2023-10-13T03:51:27;94380.22;;;19.69;35.31
70902;BME280;58548;47.210;8.618;2023-10-13T03:53:59;94375.41;;;19.66;35.09
70902;BME280;58548;47.210;8.618;2023-10-13T03:56:33;94205.88;;;18.57;34.83
70902;BME280;58548;47.210;8.618;2023-10-13T03:59:06;94377.38;;;19.59;35.70
70902;BME280;58548;47.210;8.618;2023-10-13T04:01:38;94265.44;;;18.89;35.42
70902;BME280;58548;47.210;8.618;2023-10-13T04:04:24;94372.00;;;19.54;35.06
70902;BME280;58548;47.210;8.618;2023-10-13T04:07:03;94271.72;;;18.82;34.81
70902;BME280;58548;47.210;8.618;2023-10-13T04:09:36;94272.28;;;18.84;35.54
70902;BME280;58548;47.210;8.618;2023-10-13T04:12:03;94363.97;;;19.49;35.64
70902;BME280;58548;47.210;8.618;2023-10-13T04:14:35;94363.97;;;19.49;35.56
70902;BME280;58548;47.210;8.618;2023-10-13T04:17:20;94279.25;;;18.91;35.62
70902;BME280;58548;47.210;8.618;2023-10-13T04:19:59;94354.06;;;19.44;36.54
70902;BME280;58548;47.210;8.618;2023-10-13T04:22:36;94248.25;;;18.74;35.82
70902;BME280;58548;47.210;8.618;2023-10-13T04:30:49;94354.47;;;19.36;36.24
70902;BME280;58548;47.210;8.618;2023-10-13T04:36:08;94345.41;;;19.32;36.47
70902;BME280;58548;47.210;8.618;2023-10-13T04:38:55;94250.66;;;18.76;35.84
70902;BME280;58548;47.210;8.618;2023-10-13T04:41:27;94337.09;;;19.28;35.68
70902;BME280;58548;47.210;8.618;2023-10-13T04:44:12;94323.38;;;19.14;35.95
70902;BME280;58548;47.210;8.618;2023-10-13T04:47:00;94226.47;;;18.55;35.59
70902;BME280;58548;47.210;8.618;2023-10-13T04:49:29;94324.19;;;19.14;35.97
70902;BME280;58548;47.210;8.618;2023-10-13T04:52:03;94338.53;;;19.19;36.24
70902;BME280;58548;47.210;8.618;2023-10-13T04:54:40;94243.16;;;18.56;36.10
70902;BME280;58548;47.210;8.618;2023-10-13T04:57:35;94238.59;;;18.51;36.64
70902;BME280;58548;47.210;8.618;2023-10-13T05:00:13;94240.19;;;18.52;36.42
70902;BME280;58548;47.210;8.618;2023-10-13T05:02:45;94246.38;;;18.58;36.58
70902;BME280;58548;47.210;8.618;2023-10-13T05:05:31;94151.03;;;17.94;36.37
70902;BME280;58548;47.210;8.618;2023-10-13T05:08:18;94329.38;;;19.09;36.36
70902;BME280;58548;47.210;8.618;2023-10-13T05:11:05;94312.16;;;18.95;36.08
70902;BME280;58548;47.210;8.618;2023-10-13T05:14:00;94215.75;;;18.33;35.98
70902;BME280;58548;47.210;8.618;2023-10-13T05:16:47;94243.31;;;18.49;35.99
70902;BME280;58548;47.210;8.618;2023-10-13T05:19:34;94335.94;;;19.07;36.20
70902;BME280;58548;47.210;8.618;2023-10-13T05:22:21;94252.38;;;18.53;36.37
70902;BME280;58548;47.210;8.618;2023-10-13T05:25:06;94304.56;;;18.87;36.12
70902;BME280;58548;47.210;8.618;2023-10-13T05:27:51;94338.59;;;19.07;36.56
70902;BME280;58548;47.210;8.618;2023-10-13T05:30:35;94231.16;;;18.36;36.46
70902;BME280;58548;47.210;8.618;2023-10-13T05:33:20;94341.50;;;19.05;36.16
70902;BME280;58548;47.210;8.618;2023-10-13T05:36:10;94255.94;;;18.47;35.96
70902;BME280;58548;47.210;8.618;2023-10-13T05:38:55;94325.72;;;18.98;36.21
70902;BME280;58548;47.210;8.618;2023-10-13T05:41:39;94243.97;;;18.44;35.87
70902;BME280;58548;47.210;8.618;2023-10-13T05:44:26;94339.97;;;19.09;35.30
70902;BME280;58548;47.210;8.618;2023-10-13T05:47:19;94343.09;;;19.06;35.79
70902;BME280;58548;47.210;8.618;2023-10-13T05:50:04;94281.63;;;18.75;35.91
70902;BME280;58548;47.210;8.618;2023-10-13T05:52:57;94219.44;;;18.32;36.17
70902;BME280;58548;47.210;8.618;2023-10-13T05:55:32;94344.22;;;19.10;35.89
70902;BME280;58548;47.210;8.618;2023-10-13T05:58:19;94258.00;;;18.57;36.77
70902;BME280;58548;47.210;8.618;2023-10-13T06:01:04;94344.22;;;19.10;36.32
70902;BME280;58548;47.210;8.618;2023-10-13T06:03:48;94273.09;;;18.73;36.82
70902;BME280;58548;47.210;8.618;2023-10-13T06:06:35;94344.97;;;19.23;36.05
70902;BME280;58548;47.210;8.618;2023-10-13T06:09:23;94230.41;;;18.52;36.14
70902;BME280;58548;47.210;8.618;2023-10-13T06:12:09;94240.69;;;18.66;36.41
70902;BME280;58548;47.210;8.618;2023-10-13T06:14:54;94333.91;;;19.26;36.70
70902;BME280;58548;47.210;8.618;2023-10-13T06:17:38;94339.38;;;19.36;36.43
70902;BME280;58548;47.210;8.618;2023-10-13T06:20:23;94343.75;;;19.42;36.71
70902;BME280;58548;47.210;8.618;2023-10-13T06:23:07;94317.63;;;19.34;36.80
70902;BME280;58548;47.210;8.618;2023-10-13T06:25:56;94261.06;;;19.06;36.16
70902;BME280;58548;47.210;8.618;2023-10-13T06:28:43;94254.16;;;19.05;36.57
70902;BME280;58548;47.210;8.618;2023-10-13T06:31:12;94334.44;;;19.57;36.37
70902;BME280;58548;47.210;8.618;2023-10-13T06:33:49;94319.19;;;19.64;36.17
70902;BME280;58548;47.210;8.618;2023-10-13T06:36:15;94282.41;;;19.51;36.64
70902;BME280;58548;47.210;8.618;2023-10-13T06:38:45;94330.06;;;19.97;36.28
70902;BME280;58548;47.210;8.618;2023-10-13T06:41:18;94349.22;;;20.21;36.20
70902;BME280;58548;47.210;8.618;2023-10-13T06:43:56;94322.72;;;20.21;36.36
70902;BME280;58548;47.210;8.618;2023-10-13T06:46:33;94349.16;;;20.55;36.60
70902;BME280;58548;47.210;8.618;2023-10-13T06:49:01;94246.22;;;20.13;36.01
70902;BME280;58548;47.210;8.618;2023-10-13T06:51:30;94254.47;;;20.33;35.56
70902;BME280;58548;47.210;8.618;2023-10-13T06:54:05;94263.03;;;20.63;35.62
70902;BME280;58548;47.210;8.618;2023-10-13T06:56:35;94345.31;;;21.35;35.03
70902;BME280;58548;47.210;8.618;2023-10-13T06:59:05;94343.59;;;21.51;35.37
70902;BME280;58548;47.210;8.618;2023-10-13T07:01:35;94179.69;;;20.59;34.99
70902;BME280;58548;47.210;8.618;2023-10-13T07:04:09;94254.41;;;21.28;35.17
70902;BME280;58548;47.210;8.618;2023-10-13T07:06:43;94250.09;;;21.49;34.75
70902;BME280;58548;47.210;8.618;2023-10-13T07:09:20;94254.31;;;21.82;34.79
70902;BME280;58548;47.210;8.618;2023-10-13T07:11:58;94256.69;;;22.22;34.48
70902;BME280;58548;47.210;8.618;2023-10-13T07:14:27;94325.75;;;23.18;33.91
70902;BME280;58548;47.210;8.618;2023-10-13T07:16:56;94266.63;;;23.31;33.83
70902;BME280;58548;47.210;8.618;2023-10-13T07:19:30;94347.94;;;24.48;30.89
70902;BME280;58548;47.210;8.618;2023-10-13T07:22:01;94356.25;;;25.22;29.75
70902;BME280;58548;47.210;8.618;2023-10-13T07:24:46;94295.41;;;25.54;29.49
70902;BME280;58548;47.210;8.618;2023-10-13T07:27:16;94363.78;;;26.64;29.32
70902;BME280;58548;47.210;8.618;2023-10-13T07:29:50;94303.94;;;26.98;27.74
70902;BME280;58548;47.210;8.618;2023-10-13T07:32:25;94366.72;;;28.12;26.41
70902;BME280;58548;47.210;8.618;2023-10-13T07:34:53;94364.66;;;28.84;26.32
70902;BME280;58548;47.210;8.618;2023-10-13T07:37:24;94366.41;;;29.58;26.06
70902;BME280;58548;47.210;8.618;2023-10-13T07:40:00;94311.63;;;30.00;24.77
70902;BME280;58548;47.210;8.618;2023-10-13T07:42:29;94362.22;;;31.06;23.95
70902;BME280;58548;47.210;8.618;2023-10-13T07:45:06;94373.66;;;31.96;22.77
70902;BME280;58548;47.210;8.618;2023-10-13T07:47:33;94307.66;;;32.24;20.88
70902;BME280;58548;47.210;8.618;2023-10-13T07:50:01;94303.81;;;32.90;20.77
70902;BME280;58548;47.210;8.618;2023-10-13T07:52:32;94382.50;;;34.08;19.66
70902;BME280;58548;47.210;8.618;2023-10-13T07:55:20;94305.31;;;34.39;19.38
70902;BME280;58548;47.210;8.618;2023-10-13T07:57:48;94294.22;;;35.03;18.24
70902;BME280;58548;47.210;8.618;2023-10-13T08:00:21;94360.25;;;36.14;17.12
70902;BME280;58548;47.210;8.618;2023-10-13T08:03:05;94371.97;;;36.91;15.84
70902;BME280;58548;47.210;8.618;2023-10-13T08:05:57;94376.25;;;37.56;15.56
70902;BME280;58548;47.210;8.618;2023-10-13T08:08:33;94315.44;;;37.71;14.88
70902;BME280;58548;47.210;8.618;2023-10-13T08:13:50;94375.44;;;39.20;13.90
70902;BME280;58548;47.210;8.618;2023-10-13T08:16:29;94372.97;;;39.65;12.57
70902;BME280;58548;47.210;8.618;2023-10-13T08:19:17;94330.19;;;39.76;13.04
70902;BME280;58548;47.210;8.618;2023-10-13T08:21:47;94375.47;;;40.38;12.31
70902;BME280;58548;47.210;8.618;2023-10-13T08:24:26;94371.59;;;40.81;12.37
70902;BME280;58548;47.210;8.618;2023-10-13T08:27:19;94323.97;;;40.96;11.62
70902;BME280;58548;47.210;8.618;2023-10-13T08:30:03;94308.19;;;41.27;10.72
70902;BME280;58548;47.210;8.618;2023-10-13T08:32:50;94361.09;;;42.09;11.07
70902;BME280;58548;47.210;8.618;2023-10-13T08:35:42;94371.41;;;42.52;10.32
70902;BME280;58548;47.210;8.618;2023-10-13T08:38:20;94333.00;;;42.63;9.88
70902;BME280;58548;47.210;8.618;2023-10-13T08:40:58;94361.28;;;43.03;9.73
70902;BME280;58548;47.210;8.618;2023-10-13T08:43:43;94283.19;;;42.68;9.58
70902;BME280;58548;47.210;8.618;2023-10-13T08:46:19;94303.97;;;43.05;9.38
70902;BME280;58548;47.210;8.618;2023-10-13T08:48:57;94342.00;;;43.54;8.80
70902;BME280;58548;47.210;8.618;2023-10-13T08:51:38;94368.22;;;43.91;8.60
70902;BME280;58548;47.210;8.618;2023-10-13T08:54:15;94298.38;;;43.67;8.31
70902;BME280;58548;47.210;8.618;2023-10-13T08:56:49;94301.00;;;43.96;8.61
70902;BME280;58548;47.210;8.618;2023-10-13T08:59:22;94324.75;;;44.39;8.38
70902;BME280;58548;47.210;8.618;2023-10-13T09:02:15;94296.84;;;44.44;7.85
70902;BME280;58548;47.210;8.618;2023-10-13T09:04:46;94295.13;;;44.65;8.47
70902;BME280;58548;47.210;8.618;2023-10-13T09:07:13;94277.28;;;44.80;8.16
70902;BME280;58548;47.210;8.618;2023-10-13T09:09:52;94224.72;;;44.64;7.91
70902;BME280;58548;47.210;8.618;2023-10-13T09:12:27;94301.16;;;45.40;7.51
70902;BME280;58548;47.210;8.618;2023-10-13T09:15:10;94335.31;;;45.88;6.87
70902;BME280;58548;47.210;8.618;2023-10-13T09:17:57;94271.81;;;45.57;6.98
70902;BME280;58548;47.210;8.618;2023-10-13T09:20:40;94333.94;;;46.03;6.66
70902;BME280;58548;47.210;8.618;2023-10-13T09:23:13;94340.81;;;46.22;6.31
70902;BME280;58548;47.210;8.618;2023-10-13T09:25:52;94273.94;;;45.76;6.31
70902;BME280;58548;47.210;8.618;2023-10-13T09:28:28;94334.84;;;46.24;6.30
70902;BME280;58548;47.210;8.618;2023-10-13T09:30:58;94269.19;;;45.81;6.47
70902;BME280;58548;47.210;8.618;2023-10-13T09:33:26;94340.94;;;46.43;6.03
70902;BME280;58548;47.210;8.618;2023-10-13T09:36:02;94318.00;;;46.46;6.48
70902;BME280;58548;47.210;8.618;2023-10-13T09:38:38;94252.03;;;46.24;6.04
70902;BME280;58548;47.210;8.618;2023-10-13T09:41:13;94303.69;;;46.82;5.57
70902;BME280;58548;47.210;8.618;2023-10-13T09:43:55;94280.72;;;46.85;5.83
70902;BME280;58548;47.210;8.618;2023-10-13T09:46:27;94330.81;;;47.35;5.35
70902;BME280;58548;47.210;8.618;2023-10-13T09:49:09;94276.88;;;47.03;5.95
70902;BME280;58548;47.210;8.618;2023-10-13T09:51:42;94328.97;;;47.48;6.42
70902;BME280;58548;47.210;8.618;2023-10-13T09:54:38;94327.81;;;47.69;5.74
70902;BME280;58548;47.210;8.618;2023-10-13T09:57:15;94320.00;;;47.84;5.73
70902;BME280;58548;47.210;8.618;2023-10-13T09:59:57;94264.75;;;47.61;5.56
70902;BME280;58548;47.210;8.618;2023-10-13T10:02:34;94202.84;;;47.34;5.47
70902;BME280;58548;47.210;8.618;2023-10-13T10:05:00;94324.28;;;48.26;5.60
70902;BME280;58548;47.210;8.618;2023-10-13T10:07:57;94249.78;;;47.78;4.96
70902;BME280;58548;47.210;8.618;2023-10-13T10:16:39;94233.06;;;48.02;5.13
70902;BME280;58548;47.210;8.618;2023-10-13T10:19:12;94295.28;;;48.51;4.83
70902;BME280;58548;47.210;8.618;2023-10-13T10:21:38;94288.69;;;48.61;5.20
70902;BME280;58548;47.210;8.618;2023-10-13T10:24:16;94296.50;;;48.83;5.01
70902;BME280;58548;47.210;8.618;2023-10-13T10:26:58;94279.25;;;48.92;5.21
70902;BME280;58548;47.210;8.618;2023-10-13T10:29:27;94289.53;;;49.24;5.04
70902;BME280;58548;47.210;8.618;2023-10-13T10:31:58;94228.31;;;49.02;5.22
70902;BME280;58548;47.210;8.618;2023-10-13T10:34:30;94227.06;;;49.19;5.33
70902;BME280;58548;47.210;8.618;2023-10-13T10:37:01;94279.97;;;49.84;5.25
70902;BME280;58548;47.210;8.618;2023-10-13T10:39:38;94285.56;;;50.10;4.56
70902;BME280;58548;47.210;8.618;2023-10-13T10:42:12;94280.47;;;50.21;4.45
70902;BME280;58548;47.210;8.618;2023-10-13T10:44:42;94255.06;;;50.23;4.18
70902;BME280;58548;47.210;8.618;2023-10-13T10:47:14;94269.03;;;50.45;4.46
70902;BME280;58548;47.210;8.618;2023-10-13T10:50:02;94277.28;;;50.62;4.77
70902;BME280;58548;47.210;8.618;2023-10-13T10:52:45;94263.22;;;50.78;4.18
70902;BME280;58548;47.210;8.618;2023-10-13T10:55:12;94188.72;;;50.38;4.44
70902;BME280;58548;47.210;8.618;2023-10-13T10:57:42;94193.91;;;50.49;3.97
70902;BME280;58548;47.210;8.618;2023-10-13T11:00:20;94194.16;;;50.54;4.09
70902;BME280;58548;47.210;8.618;2023-10-13T11:02:58;94256.41;;;51.05;4.27
70902;BME280;58548;47.210;8.618;2023-10-13T11:05:26;94251.34;;;51.13;3.88
70902;BME280;58548;47.210;8.618;2023-10-13T11:07:58;94185.84;;;50.77;3.80
70902;BME280;58548;47.210;8.618;2023-10-13T11:10:26;94248.91;;;51.15;3.89
70902;BME280;58548;47.210;8.618;2023-10-13T11:13:00;94243.44;;;51.11;4.00
70902;BME280;58548;47.210;8.618;2023-10-13T11:15:43;94226.94;;;50.95;3.97
70902;BME280;58548;47.210;8.618;2023-10-13T11:18:11;94238.78;;;51.08;3.84
70902;BME280;58548;47.210;8.618;2023-10-13T11:20:59;94172.91;;;50.61;3.97
70902;BME280;58548;47.210;8.618;2023-10-13T11:23:25;94230.94;;;50.94;4.20
70902;BME280;58548;47.210;8.618;2023-10-13T11:25:58;94160.69;;;50.45;4.45
70902;BME280;58548;47.210;8.618;2023-10-13T11:28:27;94155.38;;;50.51;5.05
70902;BME280;58548;47.210;8.618;2023-10-13T11:30:55;94217.94;;;50.91;4.30
70902;BME280;58548;47.210;8.618;2023-10-13T11:33:26;94197.22;;;50.69;4.51
70902;BME280;58548;47.210;8.618;2023-10-13T11:35:58;94146.06;;;50.32;3.85
70902;BME280;58548;47.210;8.618;2023-10-13T11:38:29;94171.16;;;50.41;3.91
70902;BME280;58548;47.210;8.618;2023-10-13T11:41:10;94131.22;;;50.00;3.91
70902;BME280;58548;47.210;8.618;2023-10-13T11:43:50;94123.34;;;49.85;4.47
70902;BME280;58548;47.210;8.618;2023-10-13T11:49:08;94189.59;;;50.35;4.70
70902;BME280;58548;47.210;8.618;2023-10-13T11:51:46;94138.00;;;49.99;4.29
70902;BME280;58548;47.210;8.618;2023-10-13T11:56:42;94112.22;;;49.85;4.94
70902;BME280;58548;47.210;8.618;2023-10-13T11:59:09;94182.56;;;50.43;4.67
70902;BME280;58548;47.210;8.618;2023-10-13T12:01:47;94177.00;;;50.43;5.04
70902;BME280;58548;47.210;8.618;2023-10-13T12:04:34;94112.00;;;50.05;5.11
70902;BME280;58548;47.210;8.618;2023-10-13T12:07:20;94166.59;;;50.34;5.07
70902;BME280;58548;47.210;8.618;2023-10-13T12:09:52;94128.53;;;50.09;4.73
70902;BME280;58548;47.210;8.618;2023-10-13T12:14:48;94156.97;;;50.13;4.86
70902;BME280;58548;47.210;8.618;2023-10-13T12:17:35;94124.09;;;49.73;4.58
70902;BME280;58548;47.210;8.618;2023-10-13T12:20:06;94082.91;;;49.32;4.46
70902;BME280;58548;47.210;8.618;2023-10-13T12:22:36;94152.88;;;49.79;5.03
70902;BME280;58548;47.210;8.618;2023-10-13T12:25:08;94120.88;;;49.61;4.81
70902;BME280;58548;47.210;8.618;2023-10-13T12:27:54;94073.78;;;49.32;4.79
70902;BME280;58548;47.210;8.618;2023-10-13T12:30:23;94140.97;;;49.65;5.31
70902;BME280;58548;47.210;8.618;2023-10-13T12:33:10;94151.19;;;49.69;4.53
70902;BME280;58548;47.210;8.618;2023-10-13T12:35:39;94147.06;;;49.73;5.59
70902;BME280;58548;47.210;8.618;2023-10-13T12:38:24;94129.75;;;49.69;5.16
70902;BME280;58548;47.210;8.618;2023-10-13T12:41:09;94138.31;;;49.75;5.58
70902;BME280;58548;47.210;8.618;2023-10-13T12:43:53;94062.16;;;49.24;4.66
70902;BME280;58548;47.210;8.618;2023-10-13T12:46:38;94125.53;;;49.64;4.02
70902;BME280;58548;47.210;8.618;2023-10-13T12:49:22;94131.97;;;49.61;4.52
70902;BME280;58548;47.210;8.618;2023-10-13T12:52:08;94125.66;;;49.48;4.81
70902;BME280;58548;47.210;8.618;2023-10-13T12:54:45;94084.88;;;49.19;4.40
70902;BME280;58548;47.210;8.618;2023-10-13T12:57:16;94056.78;;;48.91;4.57
70902;BME280;58548;47.210;8.618;2023-10-13T12:59:46;94098.72;;;49.06;4.56
70902;BME280;58548;47.210;8.618;2023-10-13T13:02:12;94119.25;;;49.09;4.93
70902;BME280;58548;47.210;8.618;2023-10-13T13:04:43;94113.00;;;49.04;5.12
70902;BME280;58548;47.210;8.618;2023-10-13T13:07:11;94105.66;;;48.98;4.55
70902;BME280;58548;47.210;8.618;2023-10-13T13:09:40;94038.31;;;48.42;5.29
70902;BME280;58548;47.210;8.618;2023-10-13T13:12:07;94101.50;;;48.77;5.18
70902;BME280;58548;47.210;8.618;2023-10-13T13:14:39;94030.88;;;48.22;5.27
70902;BME280;58548;47.210;8.618;2023-10-13T13:17:12;94097.25;;;48.42;5.67
70902;BME280;58548;47.210;8.618;2023-10-13T13:19:38;94086.00;;;48.33;5.96
70902;BME280;58548;47.210;8.618;2023-10-13T13:22:08;94090.69;;;48.36;5.67
70902;BME280;58548;47.210;8.618;2023-10-13T13:24:44;94077.31;;;48.31;5.56
70902;BME280;58548;47.210;8.618;2023-10-13T13:27:15;94088.09;;;48.29;6.04
70902;BME280;58548;47.210;8.618;2023-10-13T13:29:45;94045.03;;;47.95;5.59
70902;BME280;58548;47.210;8.618;2023-10-13T13:32:12;94075.88;;;48.26;5.53
70902;BME280;58548;47.210;8.618;2023-10-13T13:34:54;94044.53;;;48.00;5.69
70902;BME280;58548;47.210;8.618;2023-10-13T13:37:23;94000.69;;;47.65;5.92
70902;BME280;58548;47.210;8.618;2023-10-13T13:39:53;94000.09;;;47.58;6.12
70902;BME280;58548;47.210;8.618;2023-10-13T13:42:19;94065.88;;;47.99;6.10
70902;BME280;58548;47.210;8.618;2023-10-13T13:44:52;93935.72;;;47.04;5.89
70902;BME280;58548;47.210;8.618;2023-10-13T13:47:18;94002.81;;;47.41;6.04
70902;BME280;58548;47.210;8.618;2023-10-13T13:49:44;94069.69;;;47.73;6.17
70902;BME280;58548;47.210;8.618;2023-10-13T13:52:17;93993.59;;;46.94;6.09
70902;BME280;58548;47.210;8.618;2023-10-13T13:54:50;94069.69;;;47.16;6.39
70902;BME280;58548;47.210;8.618;2023-10-13T13:57:19;94052.94;;;46.86;6.88
70902;BME280;58548;47.210;8.618;2023-10-13T13:59:45;94026.25;;;46.59;6.49
70902;BME280;58548;47.210;8.618;2023-10-13T14:02:13;93985.66;;;46.16;7.17
70902;BME280;58548;47.210;8.618;2023-10-13T14:04:47;94057.00;;;46.37;6.61
70902;BME280;58548;47.210;8.618;2023-10-13T14:07:17;94051.94;;;46.12;6.96
70902;BME280;58548;47.210;8.618;2023-10-13T14:09:51;93965.00;;;45.29;7.19
70902;BME280;58548;47.210;8.618;2023-10-13T14:12:31;94029.63;;;45.52;7.27
70902;BME280;58548;47.210;8.618;2023-10-13T14:15:09;94026.47;;;45.26;7.05